Jump to content

Avião de carga cai no México


PR-GOK

Recommended Posts

Um avião Airbus A300 caiu entre um prédio e a pista enquanto tentava pousar no aeroporto de Monterrey, segundo o site Reforma. Pelo menos cinco pessoas morreram.

 

O avião da AeroUnion caiu perto das 23h locais (01h em Brasília), de acordo com a agência BNO News.

 

De acordo com o site Milenio, o diretor de Proteção Civil de Monterrey, Jorge Camacho Rincón, informou que as cinco pessoas eram da tripulação do avião. O avião partiu da Cidade do México.

 

A maior parte do avião caiu dentro do terreno do aeroporto, incluindo uma turbina que se desprendeu e caiu sobre um prédio próximo. Várias equipes de resgate estão no local. O avião queima combustível, exigindo o trabalho dos bombeiros e do Exército.

 

Fonte Terra.

 

Alguém tem mais infos????

 

 

Link to comment
Share on other sites

Notícias via Google Notícias - Associated Press.

 

http://www.google.com/hostednews/ap/articl...cbTMegD9F2OPJ00

 

Cargo plane crashes in Mexico, 4 crew dead

 

By MARK WALSH (AP) – 1 hour ago

 

MEXICO CITY — A cargo plane crashed while trying to land overnight in the northern Mexican city of Monterrey, killing at least four crew members, authorities said Wednesday. A fifth crew member was missing and presumed dead.

 

Rescue workers pulled four bodies from the smoldering wreckage just outside the international airport serving Mexico's third largest city, said Jorge Camacho, director of civil protection in Nuevo Leon state, where Monterrey is located.

 

Camacho said rescuers were still searching for a fifth crew member, who was presumed dead.

 

They also suspected a sports utility vehicle may have been crushed under the plane, but could not immediately identify any vehicle in the wreckage, he said.

 

The Airbus A300 was trying to land in rainy and cloudy conditions when it crashed on a road leading to the airport. The plane, belonging to Mexico City-based Aerotransporte de Carga Union, had taken off from Mexico City on Tuesday night.

 

Firefighters at the scene said the plane caught fire after the crash, but the blaze was put out.

 

Charred and smoking wreckage was spread around a radius of at least 50 meters (164 feet). The nose of the plane and both wings had been torn away from the fusilage and lay in the middle of the two-lane road.

 

Authorities were investigating the cause of the accident.

Copyright © 2010 The Associated Press. All rights reserved.

Related articles

 

Foto via Twitter postada por alguém do México:

http://twitpic.com/1fhci9

 

Enfim, tá louco, bruxa está a solta. Condolências aos familiares e amigos dos tripulantes. :(

Link to comment
Share on other sites

Matrícula: XA-TUE.

 

Noticia muito triste. Minhas condolências. :( :( :(

 

Segundo o Aviation Safety, o TUE tinha 31 anos de uso...

 

1499987-4961-ga.jpg

 

Status:Preliminary

Date:13 APR 2010

Time:ca 23:00

Type:Airbus A300B4-203F

Operator:Aerounion - Aerotransporte de Carga Union

Registration:XA-TUE

C/n / msn:078

First flight:1979-04-06 (31 years )

Engines:2 General Electric CF6-50C2

Crew:Fatalities: 2 / Occupants: 2

Passengers:Fatalities: 0 / Occupants: 0

Total:Fatalities: 2 / Occupants: 2

Ground casualties:Fatalities: 3

Airplane damage:Destroyed

Airplane fate:Written off (damaged beyond repair)

Location:near Monterrey-Gen Mariano Escobedo Airport (MTY) (Mexico)

Phase:Initial climb (ICL)

Nature:Cargo

Departure airport:Monterrey-Gen Mariano Escobedo Airport (MTY/MMMY), Mexico

Destination airport:Los Angeles International Airport, CA (LAX/KLAX), United States of America

Narrative:

 

Crashed just after take-off. Media reports indicate that five people died in the accident.

Weather (accident time approx 04:00 UTC)

MMMY 140445Z 11014KT 1SM SHRA BKN006 OVC025CB 19/19 A2998 RMK 60805 8/9// LIGIC

MMMY 140420Z 11012KT 3SM SHRA BKN006 OVC025CB 20/19 A2999 RMK 8/9// SHRAB15 LTGIC

MMMY 140342Z 10014KT 7SM -RA BKN006 BKN025CB OVC050 20/19 A2998 RMK 61105 8/9// HZ LTGIC

MMMY 140325Z 11012KT 7SM BKN004 BKN020CB OVC050 20/19 A2998 RMK 8/9// SHRAE15 OCNL DROPS LTGIC

MMMY 140248Z 12010KT 4SM SHRA BKN020CB OVC070 20/19 A2996 RMK SLP140 53031 961 60705 8/97/ PRESRR

Link to comment
Share on other sites

Phase:Initial climb (ICL)

 

Narrative:

Crashed just after take-off. Media reports indicate that five people died in the accident.

 

Não entendi...não foi na aterrisagem ? :unsure:

 

Link to comment
Share on other sites

Mês trágico para a aviação mundial, uma pena... :(

 

Vi em um fórum gringo, que o Cmte e Copiloto era pai e filho, mas não sei ainda veracidade da informação. Condolências aos familiares.

Link to comment
Share on other sites

Complicado acessar os sites aeronáuticos e pelo segundo dia seguido, ter informações de incidentes/acidentes, e pior, com vítimas fatais...

 

e22f0dd5-6fce-4861-8c67-f478bc07f8d7.jpg

 

1fhci92de1116e.jpg

 

x211866262dec587c.jpg

 

Metars:

MMMY 140550Z 11012KT 3SM RA BKN006 OVC025CB 19/19 A3000 RMK SLP159 51019 908 61205 8/9// LTGIC SHRAE30BRA

MMMY 140445Z 11014KT 1SM SHRA BKN006 OVC025CB 19/19 A2998 RMK 60805 8/9// LIGIC

MMMY 140420Z 11012KT 3SM SHRA BKN006 OVC025CB 20/19 A2999 RMK 8/9// SHRAB15 LTGIC

MMMY 140342Z 10014KT 7SM -RA BKN006 BKN025CB OVC050 20/19 A2998 RMK 61105 8/9// HZ LTGIC

MMMY 140325Z 11012KT 7SM BKN004 BKN020CB OVC050 20/19 A2998 RMK 8/9// SHRAE15 OCNL DROPS LTGIC

MMMY 140248Z 12010KT 4SM SHRA BKN020CB OVC070 20/19 A2996 RMK SLP140 53031 961 60705 8/97/ PRESRR

MMMY 140150Z 08010KT 10SM SHRA BKN030CB OVC070 20/19 A2992 RMK 60805 8/97/

MMMY 140137Z SPECI 08014KT 10SM SHRA BKN030CB OVC070 21/19 A2992 RMK 8/97/ SHRAB30

MMMY 140137Z 08014KT 10SM SHRA BKN030CB OVC070 21/19 A2992 RMK 8/97/ SHRAB30

MMMY 140044Z 08012KT 15SM BKN050 OVC070 23/19 A2989 RMK 8/57/ CB/RA NE/SE/E/SSW

MMMY 132350Z 00000KT 15SM BKN045 OVC070 24/18 A2988 RMK SLP105 55016 983 8/57/ CB/RA E/SE/S

 

Esse ano começou realmente com muitos acidentes, teve o TU 154 no Iran, o 738 da Ethiopian em Beirute, o Tu 154 da Força Aérea Polonesa, o 737 da Merpati, agora esse A300 da Aero Union. De fato, o XA-TUE era um dos A300s mais antigos em operação no mundo. Ele já voou como/para:

 

F-BVGM - Air France

F-BVGM - Air Seychelles (leasing)

F-BVGM - Malaysia Airlines (leasing)

F-BVGM - Air France

N828SC - Private (First Security Bank of Utah)

C-FICB - ICC Air Cargo Canada

XA-TUE - Aero Unio (convertido para cargueiro)

 

Resumindo, o mesmo já voava a 31 anos.

Link to comment
Share on other sites

Por favor, alguém engaiola a bruxa...........Esse ano Ela Está Sooooltaaa!

 

Pêsames as famílias das vítimas, que Deus as conforte!!

 

Mas será que era pai e filho mesmo os pilotos?

Link to comment
Share on other sites

Eis os nomes dos Tripulantes envolvidos no acidente

 

 

-Cap. Adolfo Müller P.

- Cap. José Manuel Guerra

- Cap. Humberto Castillo V.

- Cap. Manfred Müller

- Mechanic: Erick Guzmán

 

RIP!!!!

Link to comment
Share on other sites

Archived

This topic is now archived and is closed to further replies.

Guest
This topic is now closed to further replies.
×
×
  • Create New...

Important Information

Saiba os termos, regras e políticas de privacidade